createdAt,value
2022-09-22T04:17:57.397Z,73.72
2022-09-22T04:20:23.950Z,74.76
2022-09-22T04:22:50.379Z,74.45
2022-09-22T04:25:16.815Z,73.77
2022-09-22T04:27:43.220Z,72.98
2022-09-22T04:30:10.605Z,72.10
2022-09-22T04:32:39.243Z,72.63
2022-09-22T04:35:06.849Z,72.23
2022-09-22T04:37:33.303Z,71.24
2022-09-22T04:40:00.093Z,71.23
2022-09-22T04:42:26.947Z,71.93
2022-09-22T04:44:56.991Z,72.03
2022-09-22T04:47:23.455Z,72.45
2022-09-22T04:49:50.349Z,74.89
2022-09-22T04:52:16.807Z,75.51
2022-09-22T04:54:43.314Z,76.25
2022-09-22T04:57:09.980Z,77.02
2022-09-22T04:59:36.512Z,76.74
2022-09-22T05:02:03.629Z,76.72
2022-09-22T05:04:30.095Z,77.16
2022-09-22T05:06:56.930Z,75.96
2022-09-22T05:09:25.566Z,75.31
2022-09-22T05:11:52.014Z,74.61
2022-09-22T05:14:22.764Z,73.59
2022-09-22T05:16:52.366Z,73.54
2022-09-22T05:19:18.938Z,73.38
2022-09-22T05:21:55.805Z,73.40
2022-09-22T05:24:22.300Z,73.94
2022-09-22T05:26:48.878Z,74.65
2022-09-22T05:29:17.636Z,74.41
2022-09-22T05:31:45.934Z,74.37
2022-09-22T05:34:12.722Z,74.39
2022-09-22T05:36:39.520Z,73.55
2022-09-22T05:39:06.082Z,74.27
2022-09-22T05:41:32.659Z,74.84
2022-09-22T05:43:59.135Z,75.39
2022-09-22T05:46:25.692Z,74.28
2022-09-22T05:48:52.191Z,73.39
2022-09-22T05:51:18.602Z,73.48
2022-09-22T05:53:45.063Z,73.19
2022-09-22T05:56:11.489Z,72.78
2022-09-22T05:58:37.933Z,72.88
2022-09-22T06:01:04.610Z,72.55
2022-09-22T06:03:31.278Z,73.20
2022-09-22T06:05:57.806Z,73.11
2022-09-22T06:08:25.323Z,75.08
2022-09-22T06:10:52.722Z,75.88
2022-09-22T06:13:19.331Z,75.79
2022-09-22T06:15:48.596Z,75.14
2022-09-22T06:18:24.112Z,75.46
2022-09-22T06:20:51.190Z,76.61
2022-09-22T06:23:17.654Z,76.71
2022-09-22T06:25:44.160Z,75.31
2022-09-22T06:28:14.119Z,74.96
2022-09-22T06:30:40.872Z,75.70
2022-09-22T06:33:08.293Z,76.27
2022-09-22T06:35:37.836Z,75.93
2022-09-22T06:38:06.268Z,75.88
2022-09-22T06:40:36.151Z,76.09
2022-09-22T06:43:10.545Z,76.14
2022-09-22T06:45:37.786Z,76.45
2022-09-22T06:48:11.831Z,76.46
2022-09-22T06:50:40.911Z,76.17
2022-09-22T06:53:14.025Z,76.21
2022-09-22T06:55:43.878Z,75.87
2022-09-22T06:58:11.031Z,75.66
2022-09-22T07:00:37.850Z,76.32
2022-09-22T07:03:22.357Z,75.84
2022-09-22T07:05:55.398Z,76.26
2022-09-22T07:08:24.086Z,77.27
2022-09-22T07:11:02.414Z,77.04
2022-09-22T07:13:31.090Z,76.89
2022-09-22T07:16:01.711Z,77.53
2022-09-22T07:18:29.584Z,78.47
2022-09-22T07:21:27.637Z,77.67
2022-09-22T07:23:55.603Z,77.17
2022-09-22T07:26:48.769Z,77.10
2022-09-22T07:29:16.744Z,77.09
2022-09-22T07:31:43.336Z,77.54
2022-09-22T07:34:10.691Z,77.29
2022-09-22T07:36:37.504Z,77.80
2022-09-22T07:39:12.127Z,78.03
2022-09-22T07:41:42.972Z,76.65
2022-09-22T07:44:30.783Z,76.19
2022-09-22T07:46:58.025Z,75.97
2022-09-22T07:49:24.634Z,75.89
2022-09-22T07:52:07.510Z,75.26
2022-09-22T07:54:39.707Z,75.14
2022-09-22T07:57:10.957Z,74.82
2022-09-22T07:59:37.960Z,74.27
2022-09-22T08:02:04.566Z,74.32
2022-09-22T08:04:31.889Z,73.61
2022-09-22T08:06:58.388Z,73.38
2022-09-22T08:09:25.353Z,73.23
2022-09-22T08:11:53.469Z,73.06
2022-09-22T08:14:23.719Z,73.14
2022-09-22T08:16:53.794Z,73.04
2022-09-22T08:19:23.398Z,72.94
2022-09-22T08:21:53.620Z,72.45
2022-09-22T08:24:22.082Z,72.35
2022-09-22T08:26:50.622Z,72.49
2022-09-22T08:29:18.191Z,71.94
2022-09-22T08:31:47.864Z,71.77
2022-09-22T08:34:16.528Z,71.42
2022-09-22T08:36:48.502Z,71.65
2022-09-22T08:39:17.348Z,71.79
2022-09-22T08:42:43.789Z,71.02
2022-09-22T08:45:34.655Z,70.47
2022-09-22T08:48:31.533Z,70.27
2022-09-22T08:51:39.252Z,69.67
2022-09-22T08:54:08.452Z,69.96
2022-09-22T08:57:11.064Z,68.40
2022-09-22T08:59:58.277Z,68.23
2022-09-22T09:02:42.985Z,67.98
2022-09-22T09:05:49.536Z,67.55
2022-09-22T09:08:22.265Z,66.33
2022-09-22T09:11:06.947Z,66.13
2022-09-22T09:14:15.970Z,65.10
2022-09-22T09:16:59.363Z,65.15
2022-09-22T09:19:31.817Z,65.17
2022-09-22T09:22:02.009Z,64.11
2022-09-22T09:27:23.116Z,62.77
2022-09-22T09:30:11.430Z,62.05
2022-09-22T09:32:59.132Z,61.66
2022-09-22T09:35:45.126Z,61.72
2022-09-22T09:38:17.367Z,60.63
2022-09-22T09:40:55.709Z,60.53
2022-09-22T09:43:24.017Z,58.25
2022-09-22T09:46:23.307Z,57.67
2022-09-22T09:49:11.716Z,58.10
2022-09-22T09:51:42.283Z,57.34
2022-09-22T09:54:18.080Z,56.03
2022-09-22T09:57:09.750Z,56.28
2022-09-22T09:59:57.518Z,55.84
2022-09-22T10:02:35.125Z,55.12
2022-09-22T10:05:07.596Z,55.29
2022-09-22T10:07:46.801Z,55.12
2022-09-22T10:10:33.001Z,53.31
2022-09-22T10:13:05.711Z,51.79
2022-09-22T10:15:37.856Z,52.28
2022-09-22T10:18:24.716Z,51.44
2022-09-22T10:21:15.348Z,52.46
2022-09-22T10:23:43.359Z,51.15
2022-09-22T10:26:20.611Z,49.19
2022-09-22T10:29:14.319Z,49.29
2022-09-22T10:31:41.771Z,48.21
2022-09-22T10:34:33.416Z,48.92
2022-09-22T10:37:04.051Z,47.51
2022-09-22T10:39:39.891Z,47.29
2022-09-22T10:42:15.355Z,46.63
2022-09-22T10:44:48.252Z,45.48
2022-09-22T10:51:21.645Z,42.98
2022-09-22T10:54:06.395Z,42.38
2022-09-22T10:56:43.609Z,40.75
2022-09-22T10:59:18.444Z,39.85
2022-09-22T11:02:16.028Z,38.07
2022-09-22T11:05:40.152Z,36.91
2022-09-22T11:08:37.508Z,34.83
2022-09-22T11:11:44.573Z,33.17
2022-09-22T11:18:27.231Z,28.97
2022-09-22T11:21:22.727Z,27.76
2022-09-22T11:24:16.261Z,26.24
2022-09-22T11:26:51.114Z,25.82
2022-09-22T11:29:41.611Z,26.07
2022-09-22T11:32:23.547Z,25.51
2022-09-22T11:35:11.728Z,25.47
2022-09-22T11:37:57.513Z,25.37
2022-09-22T11:40:33.615Z,26.67
2022-09-22T11:43:17.927Z,24.90
2022-09-22T11:46:26.374Z,23.45
2022-09-22T11:49:16.622Z,22.28
2022-09-22T11:51:55.355Z,22.01
2022-09-22T11:58:49.830Z,21.92
2022-09-22T12:01:29.815Z,21.11
2022-09-22T12:04:22.643Z,21.60
2022-09-22T12:06:51.750Z,19.19
2022-09-22T12:09:36.946Z,20.99
2022-09-22T12:12:06.224Z,19.28
2022-09-22T12:14:34.496Z,19.09
2022-09-22T12:17:41.581Z,21.33
2022-09-22T12:20:36.182Z,22.04
2022-09-22T12:23:34.087Z,21.62
2022-09-22T12:26:46.218Z,21.44
2022-09-22T12:30:13.748Z,19.83
2022-09-22T12:33:32.578Z,20.91
2022-09-22T12:36:00.710Z,19.87
2022-09-22T12:38:28.315Z,18.46
2022-09-22T12:40:58.315Z,19.80
2022-09-22T12:43:29.839Z,20.36
2022-09-22T12:45:58.696Z,19.19
2022-09-22T12:48:37.163Z,19.27
2022-09-22T12:51:36.161Z,18.96
2022-09-22T12:54:27.638Z,18.79
2022-09-22T12:56:58.910Z,16.96
2022-09-22T13:00:07.073Z,16.89
2022-09-22T13:03:30.483Z,18.71
2022-09-22T13:05:58.489Z,18.29
2022-09-22T13:08:27.978Z,17.22
2022-09-22T13:11:01.682Z,17.36
2022-09-22T13:13:41.332Z,16.43
2022-09-22T13:16:13.973Z,17.97
2022-09-22T13:18:45.836Z,17.95
2022-09-22T13:21:12.256Z,17.26
2022-09-22T13:23:53.535Z,15.62
2022-09-22T13:27:02.274Z,15.73
2022-09-22T13:29:34.367Z,17.53
2022-09-22T13:32:30.300Z,17.03
2022-09-22T13:35:53.607Z,19.11
2022-09-22T13:38:20.719Z,23.14
2022-09-22T13:40:53.496Z,21.55
2022-09-22T13:44:15.471Z,20.12
2022-09-22T13:46:50.123Z,20.17
2022-09-22T13:49:34.379Z,19.92
2022-09-22T13:52:07.163Z,19.25
2022-09-22T13:54:36.729Z,18.75
2022-09-22T13:57:06.259Z,19.36
2022-09-22T13:59:40.334Z,20.93
2022-09-22T14:02:11.793Z,21.11
2022-09-22T14:04:59.571Z,20.41
2022-09-22T14:08:10.575Z,21.51
2022-09-22T14:10:41.135Z,21.33
2022-09-22T14:13:36.473Z,21.81
2022-09-22T14:16:38.685Z,22.16
2022-09-22T14:19:14.362Z,23.05
2022-09-22T14:22:04.228Z,22.09
2022-09-22T14:24:33.397Z,22.44
2022-09-22T14:27:19.411Z,20.41
2022-09-22T14:29:51.885Z,19.69
2022-09-22T14:32:28.153Z,21.58
2022-09-22T14:35:00.986Z,21.12
2022-09-22T14:37:32.816Z,20.15
2022-09-22T14:40:07.502Z,19.44
2022-09-22T14:42:34.643Z,18.62
2022-09-22T14:45:22.169Z,20.60
2022-09-22T14:48:26.920Z,19.01
2022-09-22T14:51:06.613Z,20.14
2022-09-22T14:53:45.688Z,22.06
2022-09-22T14:56:20.158Z,23.38
2022-09-22T14:58:52.257Z,25.10
2022-09-22T15:01:44.141Z,26.47
2022-09-22T15:04:26.774Z,27.91
2022-09-22T15:06:56.368Z,28.55
2022-09-22T15:09:56.125Z,28.97
2022-09-22T15:12:47.325Z,30.84
2022-09-22T15:15:30.434Z,30.91
2022-09-22T15:18:18.222Z,31.55
2022-09-22T15:20:58.192Z,32.14
2022-09-22T15:23:41.805Z,31.41
2022-09-22T15:26:24.967Z,32.70
2022-09-22T15:28:55.703Z,33.21
2022-09-22T15:31:26.549Z,32.83
2022-09-22T15:33:54.462Z,32.58
2022-09-22T15:36:22.597Z,33.07
2022-09-22T15:38:49.557Z,33.62
2022-09-22T15:41:17.149Z,33.57
2022-09-22T15:43:44.159Z,33.45
2022-09-22T15:46:29.258Z,33.69
2022-09-22T15:49:02.204Z,33.85
2022-09-22T15:51:30.356Z,32.84
2022-09-22T15:53:56.965Z,33.52
2022-09-22T15:56:24.194Z,33.90
2022-09-22T15:58:52.228Z,32.67
2022-09-22T16:01:18.768Z,32.74
2022-09-22T16:03:45.272Z,31.44
2022-09-22T16:06:15.487Z,32.42
2022-09-22T16:08:46.141Z,32.78
2022-09-22T16:11:14.992Z,33.86
2022-09-22T16:13:41.995Z,34.74
2022-09-22T16:16:12.549Z,34.57
2022-09-22T16:18:42.143Z,34.64
2022-09-22T16:21:20.175Z,35.17
2022-09-22T16:23:46.615Z,34.88
2022-09-22T16:26:13.093Z,34.84
2022-09-22T16:28:39.572Z,35.24
2022-09-22T16:31:08.642Z,35.54
2022-09-22T16:33:35.247Z,36.08
2022-09-22T16:36:02.383Z,36.06
2022-09-22T16:38:35.170Z,36.47
2022-09-22T16:41:05.113Z,36.78
2022-09-22T16:43:33.158Z,36.79
2022-09-22T16:46:18.942Z,36.74
2022-09-22T16:48:45.436Z,37.11
2022-09-22T16:51:26.275Z,38.05
2022-09-22T16:53:56.764Z,37.95
2022-09-22T16:56:39.202Z,37.81
2022-09-22T16:59:10.053Z,38.05
2022-09-22T17:01:41.429Z,37.45
2022-09-22T17:04:08.970Z,37.86
2022-09-22T17:06:44.704Z,38.39
2022-09-22T17:09:12.798Z,37.94
2022-09-22T17:11:41.766Z,38.11
2022-09-22T17:14:12.670Z,38.43
2022-09-22T17:16:43.295Z,38.81
2022-09-22T17:19:19.407Z,39.00
2022-09-22T17:21:48.765Z,39.29
2022-09-22T17:24:16.090Z,39.51
2022-09-22T17:26:47.323Z,39.48
2022-09-22T17:29:20.930Z,39.88
2022-09-22T17:31:48.110Z,40.26
2022-09-22T17:34:15.238Z,41.04
2022-09-22T17:36:41.792Z,41.84
2022-09-22T17:39:10.464Z,42.51
2022-09-22T17:41:45.237Z,42.99
2022-09-22T17:44:21.245Z,43.09
2022-09-22T17:47:11.193Z,43.32
2022-09-22T17:49:57.277Z,43.31
2022-09-22T17:52:39.954Z,43.84
2022-09-22T17:55:16.908Z,44.43
2022-09-22T17:57:45.828Z,44.40
2022-09-22T18:00:21.345Z,45.06
2022-09-22T18:02:54.360Z,45.53
2022-09-22T18:05:28.039Z,45.24
2022-09-22T18:07:58.302Z,45.70
2022-09-22T18:10:32.165Z,46.32
2022-09-22T18:12:59.253Z,46.51
2022-09-22T18:15:26.691Z,47.54
2022-09-22T18:17:55.653Z,47.88
2022-09-22T18:20:23.070Z,48.15
2022-09-22T18:22:49.964Z,48.60
2022-09-22T18:25:45.784Z,48.88
2022-09-22T18:28:12.372Z,49.38
2022-09-22T18:30:40.588Z,50.30
2022-09-22T18:33:07.161Z,50.35
2022-09-22T18:35:33.918Z,50.71
2022-09-22T18:38:00.888Z,50.81
2022-09-22T18:40:30.025Z,51.12
2022-09-22T18:42:56.810Z,51.17
2022-09-22T18:45:25.173Z,51.69
2022-09-22T18:47:51.998Z,52.14
2022-09-22T18:50:18.482Z,52.15
2022-09-22T18:52:45.843Z,52.16
2022-09-22T18:55:17.238Z,52.51
2022-09-22T18:57:48.577Z,52.91
2022-09-22T19:00:16.284Z,53.00
2022-09-22T19:02:43.215Z,53.30
2022-09-22T19:05:09.735Z,53.87
2022-09-22T19:07:42.626Z,53.70
2022-09-22T19:10:12.548Z,53.52
2022-09-22T19:12:42.485Z,53.69
2022-09-22T19:15:15.120Z,53.68
2022-09-22T19:17:44.758Z,54.02
2022-09-22T19:20:37.823Z,53.65
2022-09-22T19:23:07.152Z,54.10
2022-09-22T19:25:34.295Z,53.99
2022-09-22T19:28:02.281Z,54.66
2022-09-22T19:30:31.521Z,54.74
2022-09-22T19:32:58.212Z,54.76
2022-09-22T19:35:25.374Z,54.89
2022-09-22T19:37:52.194Z,55.18
2022-09-22T19:40:20.346Z,55.41
2022-09-22T19:43:16.735Z,55.33
2022-09-22T19:45:43.159Z,55.46
2022-09-22T19:48:10.573Z,55.74
2022-09-22T19:50:37.048Z,56.29
2022-09-22T19:53:03.514Z,56.27
2022-09-22T19:55:29.994Z,56.23
2022-09-22T19:57:56.426Z,56.10
2022-09-22T20:00:25.889Z,56.66
2022-09-22T20:02:59.791Z,56.73
2022-09-22T20:05:29.941Z,56.21
2022-09-22T20:07:56.396Z,55.97
2022-09-22T20:10:23.182Z,55.97
2022-09-22T20:12:51.524Z,56.96
2022-09-22T20:15:19.024Z,56.28
2022-09-22T20:17:47.160Z,56.52
2022-09-22T20:20:19.626Z,56.49
2022-09-22T20:22:47.502Z,56.39
2022-09-22T20:25:22.545Z,56.85
2022-09-22T20:27:49.186Z,56.93
2022-09-22T20:30:16.541Z,57.46
2022-09-22T20:32:44.001Z,57.67
2022-09-22T20:35:13.040Z,58.35
2022-09-22T20:37:42.213Z,58.07
2022-09-22T20:40:21.203Z,58.28
2022-09-22T20:42:48.627Z,58.72
2022-09-22T20:45:15.493Z,59.53
2022-09-22T20:47:41.894Z,59.52
2022-09-22T20:50:09.784Z,59.57
2022-09-22T20:52:36.849Z,59.68
2022-09-22T20:55:03.507Z,59.75
2022-09-22T20:57:30.925Z,60.10
2022-09-22T20:59:58.444Z,60.15
2022-09-22T21:02:25.656Z,59.87
2022-09-22T21:04:52.281Z,59.59
2022-09-22T21:07:18.974Z,60.37
2022-09-22T21:10:04.089Z,60.63
2022-09-22T21:12:31.559Z,60.93
2022-09-22T21:14:58.471Z,61.18
2022-09-22T21:17:26.383Z,61.09
2022-09-22T21:19:53.647Z,61.70
2022-09-22T21:22:20.093Z,61.68
2022-09-22T21:24:48.709Z,61.41
2022-09-22T21:27:15.207Z,61.37
2022-09-22T21:29:42.104Z,61.58
2022-09-22T21:32:09.469Z,61.66
2022-09-22T21:34:36.697Z,61.27
2022-09-22T21:37:03.779Z,60.91
2022-09-22T21:39:30.218Z,61.17
2022-09-22T21:41:56.652Z,62.15
2022-09-22T21:44:23.149Z,61.56
2022-09-22T21:46:50.027Z,61.52
2022-09-22T21:49:16.454Z,61.04
2022-09-22T21:51:44.329Z,61.51
2022-09-22T21:54:18.817Z,61.50
2022-09-22T21:56:46.074Z,61.22
2022-09-22T21:59:13.229Z,61.20
